sensor_id;sensor_type;location;lat;lon;timestamp;P1;durP1;ratioP1;P2;durP2;ratioP2
69256;SDS011;56376;53.356;-1.748;2023-04-09T00:00:21;4.47;;;3.70;;
69256;SDS011;56376;53.356;-1.748;2023-04-09T00:02:46;4.53;;;3.67;;
69256;SDS011;56376;53.356;-1.748;2023-04-09T00:05:12;4.83;;;4.10;;
69256;SDS011;56376;53.356;-1.748;2023-04-09T00:07:38;5.57;;;4.67;;
69256;SDS011;56376;53.356;-1.748;2023-04-09T00:10:03;5.07;;;4.13;;
69256;SDS011;56376;53.356;-1.748;2023-04-09T00:12:30;5.17;;;4.13;;
69256;SDS011;56376;53.356;-1.748;2023-04-09T00:14:55;5.93;;;4.20;;
69256;SDS011;56376;53.356;-1.748;2023-04-09T00:17:21;6.67;;;4.67;;
69256;SDS011;56376;53.356;-1.748;2023-04-09T00:19:47;5.43;;;4.40;;
69256;SDS011;56376;53.356;-1.748;2023-04-09T00:22:12;5.13;;;4.40;;
69256;SDS011;56376;53.356;-1.748;2023-04-09T00:24:38;6.43;;;5.70;;
69256;SDS011;56376;53.356;-1.748;2023-04-09T00:27:04;5.67;;;5.07;;
69256;SDS011;56376;53.356;-1.748;2023-04-09T00:29:29;6.13;;;4.63;;
69256;SDS011;56376;53.356;-1.748;2023-04-09T00:31:55;8.00;;;5.97;;
69256;SDS011;56376;53.356;-1.748;2023-04-09T00:34:20;7.60;;;5.30;;
69256;SDS011;56376;53.356;-1.748;2023-04-09T00:36:46;6.17;;;5.20;;
69256;SDS011;56376;53.356;-1.748;2023-04-09T00:39:11;6.00;;;5.20;;
69256;SDS011;56376;53.356;-1.748;2023-04-09T00:41:36;5.90;;;4.73;;
69256;SDS011;56376;53.356;-1.748;2023-04-09T00:44:02;6.23;;;4.87;;
69256;SDS011;56376;53.356;-1.748;2023-04-09T00:46:27;5.37;;;4.70;;
69256;SDS011;56376;53.356;-1.748;2023-04-09T00:48:52;6.33;;;5.20;;
69256;SDS011;56376;53.356;-1.748;2023-04-09T00:51:18;5.67;;;4.97;;
69256;SDS011;56376;53.356;-1.748;2023-04-09T00:53:43;6.60;;;6.00;;
69256;SDS011;56376;53.356;-1.748;2023-04-09T00:56:10;8.77;;;6.40;;
69256;SDS011;56376;53.356;-1.748;2023-04-09T00:58:39;6.67;;;5.43;;
69256;SDS011;56376;53.356;-1.748;2023-04-09T01:01:04;6.40;;;4.77;;
69256;SDS011;56376;53.356;-1.748;2023-04-09T01:03:30;7.07;;;5.57;;
69256;SDS011;56376;53.356;-1.748;2023-04-09T01:11:27;9.73;;;6.43;;
69256;SDS011;56376;53.356;-1.748;2023-04-09T01:16:43;6.57;;;5.33;;
69256;SDS011;56376;53.356;-1.748;2023-04-09T01:19:18;6.00;;;5.13;;
69256;SDS011;56376;53.356;-1.748;2023-04-09T01:21:58;6.13;;;5.03;;
69256;SDS011;56376;53.356;-1.748;2023-04-09T01:27:05;7.10;;;5.00;;
69256;SDS011;56376;53.356;-1.748;2023-04-09T01:29:38;6.33;;;5.00;;
69256;SDS011;56376;53.356;-1.748;2023-04-09T01:32:09;6.63;;;4.83;;
69256;SDS011;56376;53.356;-1.748;2023-04-09T01:34:36;5.67;;;5.07;;
69256;SDS011;56376;53.356;-1.748;2023-04-09T01:37:03;6.00;;;4.73;;
69256;SDS011;56376;53.356;-1.748;2023-04-09T01:39:29;7.00;;;4.80;;
69256;SDS011;56376;53.356;-1.748;2023-04-09T01:41:55;8.30;;;5.47;;
69256;SDS011;56376;53.356;-1.748;2023-04-09T01:44:22;7.00;;;5.60;;
69256;SDS011;56376;53.356;-1.748;2023-04-09T01:46:49;6.17;;;4.83;;
69256;SDS011;56376;53.356;-1.748;2023-04-09T01:49:16;6.37;;;5.53;;
69256;SDS011;56376;53.356;-1.748;2023-04-09T01:51:42;6.87;;;4.93;;
69256;SDS011;56376;53.356;-1.748;2023-04-09T01:54:08;5.43;;;4.63;;
69256;SDS011;56376;53.356;-1.748;2023-04-09T01:56:43;8.03;;;4.80;;
69256;SDS011;56376;53.356;-1.748;2023-04-09T01:59:10;6.33;;;4.47;;
69256;SDS011;56376;53.356;-1.748;2023-04-09T02:04:44;5.90;;;4.43;;
69256;SDS011;56376;53.356;-1.748;2023-04-09T02:09:43;6.60;;;4.77;;
69256;SDS011;56376;53.356;-1.748;2023-04-09T02:12:12;6.33;;;4.93;;
69256;SDS011;56376;53.356;-1.748;2023-04-09T02:14:40;6.77;;;5.50;;
69256;SDS011;56376;53.356;-1.748;2023-04-09T02:17:08;5.97;;;5.13;;
69256;SDS011;56376;53.356;-1.748;2023-04-09T02:19:37;7.13;;;5.57;;
69256;SDS011;56376;53.356;-1.748;2023-04-09T02:22:04;6.80;;;5.60;;
69256;SDS011;56376;53.356;-1.748;2023-04-09T02:24:29;6.37;;;5.20;;
69256;SDS011;56376;53.356;-1.748;2023-04-09T02:26:55;6.60;;;5.40;;
69256;SDS011;56376;53.356;-1.748;2023-04-09T02:29:20;6.53;;;5.27;;
69256;SDS011;56376;53.356;-1.748;2023-04-09T02:31:45;7.40;;;5.67;;
69256;SDS011;56376;53.356;-1.748;2023-04-09T02:34:11;6.10;;;5.10;;
69256;SDS011;56376;53.356;-1.748;2023-04-09T02:36:36;7.33;;;5.13;;
69256;SDS011;56376;53.356;-1.748;2023-04-09T02:39:01;6.07;;;5.00;;
69256;SDS011;56376;53.356;-1.748;2023-04-09T02:41:28;5.30;;;4.80;;
69256;SDS011;56376;53.356;-1.748;2023-04-09T02:43:53;6.10;;;4.60;;
69256;SDS011;56376;53.356;-1.748;2023-04-09T02:46:18;5.23;;;4.17;;
69256;SDS011;56376;53.356;-1.748;2023-04-09T02:48:44;6.13;;;4.93;;
69256;SDS011;56376;53.356;-1.748;2023-04-09T02:51:09;7.17;;;5.00;;
69256;SDS011;56376;53.356;-1.748;2023-04-09T02:53:35;6.27;;;5.03;;
69256;SDS011;56376;53.356;-1.748;2023-04-09T02:56:01;5.30;;;4.30;;
69256;SDS011;56376;53.356;-1.748;2023-04-09T02:58:27;5.83;;;4.83;;
69256;SDS011;56376;53.356;-1.748;2023-04-09T03:00:52;6.40;;;5.33;;
69256;SDS011;56376;53.356;-1.748;2023-04-09T03:03:18;6.07;;;5.33;;
69256;SDS011;56376;53.356;-1.748;2023-04-09T03:05:43;5.73;;;5.00;;
69256;SDS011;56376;53.356;-1.748;2023-04-09T03:08:08;5.93;;;5.00;;
69256;SDS011;56376;53.356;-1.748;2023-04-09T03:10:34;4.90;;;4.33;;
69256;SDS011;56376;53.356;-1.748;2023-04-09T03:12:59;5.40;;;4.33;;
69256;SDS011;56376;53.356;-1.748;2023-04-09T03:15:24;6.37;;;4.80;;
69256;SDS011;56376;53.356;-1.748;2023-04-09T03:17:50;7.67;;;5.07;;
69256;SDS011;56376;53.356;-1.748;2023-04-09T03:20:15;6.10;;;4.77;;
69256;SDS011;56376;53.356;-1.748;2023-04-09T03:22:41;5.97;;;4.60;;
69256;SDS011;56376;53.356;-1.748;2023-04-09T03:25:06;7.20;;;5.90;;
69256;SDS011;56376;53.356;-1.748;2023-04-09T03:27:32;5.77;;;4.97;;
69256;SDS011;56376;53.356;-1.748;2023-04-09T03:29:58;7.07;;;5.23;;
69256;SDS011;56376;53.356;-1.748;2023-04-09T03:32:23;5.93;;;4.97;;
69256;SDS011;56376;53.356;-1.748;2023-04-09T03:34:48;6.07;;;4.60;;
69256;SDS011;56376;53.356;-1.748;2023-04-09T03:37:14;5.43;;;4.60;;
69256;SDS011;56376;53.356;-1.748;2023-04-09T03:39:39;6.13;;;5.10;;
69256;SDS011;56376;53.356;-1.748;2023-04-09T03:42:05;6.07;;;4.90;;
69256;SDS011;56376;53.356;-1.748;2023-04-09T03:44:30;6.87;;;5.63;;
69256;SDS011;56376;53.356;-1.748;2023-04-09T03:46:55;7.50;;;5.20;;
69256;SDS011;56376;53.356;-1.748;2023-04-09T03:49:21;6.97;;;5.30;;
69256;SDS011;56376;53.356;-1.748;2023-04-09T03:51:46;6.10;;;4.97;;
69256;SDS011;56376;53.356;-1.748;2023-04-09T03:54:12;5.57;;;4.53;;
69256;SDS011;56376;53.356;-1.748;2023-04-09T03:56:37;5.90;;;4.50;;
69256;SDS011;56376;53.356;-1.748;2023-04-09T03:59:03;5.13;;;4.37;;
69256;SDS011;56376;53.356;-1.748;2023-04-09T04:01:28;6.40;;;5.10;;
69256;SDS011;56376;53.356;-1.748;2023-04-09T04:03:53;6.47;;;4.90;;
69256;SDS011;56376;53.356;-1.748;2023-04-09T04:06:19;5.50;;;4.33;;
69256;SDS011;56376;53.356;-1.748;2023-04-09T04:08:44;6.47;;;4.90;;
69256;SDS011;56376;53.356;-1.748;2023-04-09T04:11:10;6.63;;;5.17;;
69256;SDS011;56376;53.356;-1.748;2023-04-09T04:13:35;7.57;;;5.50;;
69256;SDS011;56376;53.356;-1.748;2023-04-09T04:16:01;5.83;;;4.60;;
69256;SDS011;56376;53.356;-1.748;2023-04-09T04:18:26;5.33;;;4.50;;
69256;SDS011;56376;53.356;-1.748;2023-04-09T04:20:51;5.73;;;5.07;;
69256;SDS011;56376;53.356;-1.748;2023-04-09T04:23:17;6.47;;;4.87;;
69256;SDS011;56376;53.356;-1.748;2023-04-09T04:25:42;5.90;;;4.43;;
69256;SDS011;56376;53.356;-1.748;2023-04-09T04:28:08;7.23;;;5.73;;
69256;SDS011;56376;53.356;-1.748;2023-04-09T04:30:33;7.33;;;5.37;;
69256;SDS011;56376;53.356;-1.748;2023-04-09T04:32:59;6.20;;;5.13;;
69256;SDS011;56376;53.356;-1.748;2023-04-09T04:35:24;7.87;;;6.30;;
69256;SDS011;56376;53.356;-1.748;2023-04-09T04:37:50;5.80;;;5.10;;
69256;SDS011;56376;53.356;-1.748;2023-04-09T04:40:15;6.30;;;5.70;;
69256;SDS011;56376;53.356;-1.748;2023-04-09T04:42:41;7.87;;;5.37;;
69256;SDS011;56376;53.356;-1.748;2023-04-09T04:45:06;8.47;;;6.33;;
69256;SDS011;56376;53.356;-1.748;2023-04-09T04:47:32;5.83;;;4.40;;
69256;SDS011;56376;53.356;-1.748;2023-04-09T04:49:58;8.17;;;6.33;;
69256;SDS011;56376;53.356;-1.748;2023-04-09T04:52:23;7.43;;;5.27;;
69256;SDS011;56376;53.356;-1.748;2023-04-09T04:54:49;7.10;;;5.03;;
69256;SDS011;56376;53.356;-1.748;2023-04-09T04:57:14;8.53;;;6.30;;
69256;SDS011;56376;53.356;-1.748;2023-04-09T04:59:40;7.47;;;5.90;;
69256;SDS011;56376;53.356;-1.748;2023-04-09T05:02:05;8.23;;;5.40;;
69256;SDS011;56376;53.356;-1.748;2023-04-09T05:04:31;6.63;;;5.57;;
69256;SDS011;56376;53.356;-1.748;2023-04-09T05:06:57;8.43;;;6.83;;
69256;SDS011;56376;53.356;-1.748;2023-04-09T05:09:22;8.23;;;6.83;;
69256;SDS011;56376;53.356;-1.748;2023-04-09T05:11:48;6.67;;;5.90;;
69256;SDS011;56376;53.356;-1.748;2023-04-09T05:14:13;6.70;;;5.43;;
69256;SDS011;56376;53.356;-1.748;2023-04-09T05:16:38;6.90;;;6.07;;
69256;SDS011;56376;53.356;-1.748;2023-04-09T05:19:04;6.43;;;5.57;;
69256;SDS011;56376;53.356;-1.748;2023-04-09T05:21:30;8.33;;;5.80;;
69256;SDS011;56376;53.356;-1.748;2023-04-09T05:23:56;7.03;;;5.67;;
69256;SDS011;56376;53.356;-1.748;2023-04-09T05:26:21;8.43;;;6.00;;
69256;SDS011;56376;53.356;-1.748;2023-04-09T05:28:47;6.63;;;5.43;;
69256;SDS011;56376;53.356;-1.748;2023-04-09T05:31:12;6.53;;;5.43;;
69256;SDS011;56376;53.356;-1.748;2023-04-09T05:33:39;8.13;;;5.67;;
69256;SDS011;56376;53.356;-1.748;2023-04-09T05:36:05;7.10;;;5.33;;
69256;SDS011;56376;53.356;-1.748;2023-04-09T05:38:31;7.40;;;5.63;;
69256;SDS011;56376;53.356;-1.748;2023-04-09T05:40:56;8.00;;;5.57;;
69256;SDS011;56376;53.356;-1.748;2023-04-09T05:43:22;7.93;;;6.43;;
69256;SDS011;56376;53.356;-1.748;2023-04-09T05:45:48;8.10;;;5.70;;
69256;SDS011;56376;53.356;-1.748;2023-04-09T05:48:13;8.83;;;6.57;;
69256;SDS011;56376;53.356;-1.748;2023-04-09T05:50:38;6.90;;;5.53;;
69256;SDS011;56376;53.356;-1.748;2023-04-09T05:53:04;7.33;;;6.10;;
69256;SDS011;56376;53.356;-1.748;2023-04-09T05:55:30;8.37;;;7.13;;
69256;SDS011;56376;53.356;-1.748;2023-04-09T05:57:56;10.17;;;6.90;;
69256;SDS011;56376;53.356;-1.748;2023-04-09T06:00:22;9.47;;;7.63;;
69256;SDS011;56376;53.356;-1.748;2023-04-09T06:02:47;8.33;;;6.53;;
69256;SDS011;56376;53.356;-1.748;2023-04-09T06:05:13;8.77;;;6.87;;
69256;SDS011;56376;53.356;-1.748;2023-04-09T06:07:38;8.93;;;7.07;;
69256;SDS011;56376;53.356;-1.748;2023-04-09T06:10:04;8.57;;;7.00;;
69256;SDS011;56376;53.356;-1.748;2023-04-09T06:12:29;10.37;;;7.07;;
69256;SDS011;56376;53.356;-1.748;2023-04-09T06:14:55;8.57;;;7.00;;
69256;SDS011;56376;53.356;-1.748;2023-04-09T06:17:20;8.70;;;6.60;;
69256;SDS011;56376;53.356;-1.748;2023-04-09T06:19:46;8.83;;;6.83;;
69256;SDS011;56376;53.356;-1.748;2023-04-09T06:22:11;9.03;;;7.77;;
69256;SDS011;56376;53.356;-1.748;2023-04-09T06:24:36;10.30;;;8.27;;
69256;SDS011;56376;53.356;-1.748;2023-04-09T06:27:02;8.33;;;6.13;;
69256;SDS011;56376;53.356;-1.748;2023-04-09T06:29:27;8.63;;;6.70;;
69256;SDS011;56376;53.356;-1.748;2023-04-09T06:31:53;11.87;;;8.13;;
69256;SDS011;56376;53.356;-1.748;2023-04-09T06:34:19;10.17;;;8.67;;
69256;SDS011;56376;53.356;-1.748;2023-04-09T06:36:44;12.87;;;9.23;;
69256;SDS011;56376;53.356;-1.748;2023-04-09T06:39:09;15.47;;;10.77;;
69256;SDS011;56376;53.356;-1.748;2023-04-09T06:41:35;18.27;;;13.30;;
69256;SDS011;56376;53.356;-1.748;2023-04-09T06:44:00;22.13;;;14.20;;
69256;SDS011;56376;53.356;-1.748;2023-04-09T06:46:26;23.73;;;15.40;;
69256;SDS011;56376;53.356;-1.748;2023-04-09T06:48:52;21.13;;;14.50;;
69256;SDS011;56376;53.356;-1.748;2023-04-09T06:51:17;26.47;;;16.47;;
69256;SDS011;56376;53.356;-1.748;2023-04-09T06:53:43;23.03;;;13.97;;
69256;SDS011;56376;53.356;-1.748;2023-04-09T06:56:09;23.03;;;14.93;;
69256;SDS011;56376;53.356;-1.748;2023-04-09T06:58:34;34.03;;;20.07;;
69256;SDS011;56376;53.356;-1.748;2023-04-09T07:01:00;25.17;;;17.83;;
69256;SDS011;56376;53.356;-1.748;2023-04-09T07:03:25;21.60;;;15.33;;
69256;SDS011;56376;53.356;-1.748;2023-04-09T07:05:52;22.23;;;16.13;;
69256;SDS011;56376;53.356;-1.748;2023-04-09T07:08:18;20.07;;;13.80;;
69256;SDS011;56376;53.356;-1.748;2023-04-09T07:10:43;23.60;;;15.43;;
69256;SDS011;56376;53.356;-1.748;2023-04-09T07:13:11;25.00;;;15.97;;
69256;SDS011;56376;53.356;-1.748;2023-04-09T07:15:37;26.57;;;14.87;;
69256;SDS011;56376;53.356;-1.748;2023-04-09T07:18:02;22.80;;;15.20;;
69256;SDS011;56376;53.356;-1.748;2023-04-09T07:20:27;21.83;;;14.60;;
69256;SDS011;56376;53.356;-1.748;2023-04-09T07:22:53;28.83;;;17.37;;
69256;SDS011;56376;53.356;-1.748;2023-04-09T07:25:18;26.43;;;16.00;;
69256;SDS011;56376;53.356;-1.748;2023-04-09T07:27:44;30.43;;;19.57;;
69256;SDS011;56376;53.356;-1.748;2023-04-09T07:30:09;28.43;;;17.57;;
69256;SDS011;56376;53.356;-1.748;2023-04-09T07:32:35;28.47;;;19.10;;
69256;SDS011;56376;53.356;-1.748;2023-04-09T07:35:02;28.03;;;20.13;;
69256;SDS011;56376;53.356;-1.748;2023-04-09T07:37:29;27.77;;;19.37;;
69256;SDS011;56376;53.356;-1.748;2023-04-09T07:39:54;29.40;;;18.73;;
69256;SDS011;56376;53.356;-1.748;2023-04-09T07:42:20;33.13;;;21.67;;
69256;SDS011;56376;53.356;-1.748;2023-04-09T07:44:46;32.13;;;23.03;;
69256;SDS011;56376;53.356;-1.748;2023-04-09T07:47:13;33.30;;;22.03;;
69256;SDS011;56376;53.356;-1.748;2023-04-09T07:49:38;37.30;;;23.37;;
69256;SDS011;56376;53.356;-1.748;2023-04-09T07:52:04;33.17;;;22.60;;
69256;SDS011;56376;53.356;-1.748;2023-04-09T07:54:30;33.37;;;21.20;;
69256;SDS011;56376;53.356;-1.748;2023-04-09T07:56:56;32.20;;;19.57;;
69256;SDS011;56376;53.356;-1.748;2023-04-09T07:59:22;30.13;;;19.73;;
69256;SDS011;56376;53.356;-1.748;2023-04-09T08:01:48;30.00;;;21.30;;
69256;SDS011;56376;53.356;-1.748;2023-04-09T08:04:14;37.57;;;22.80;;
69256;SDS011;56376;53.356;-1.748;2023-04-09T08:06:40;34.50;;;22.33;;
69256;SDS011;56376;53.356;-1.748;2023-04-09T08:09:05;29.23;;;19.27;;
69256;SDS011;56376;53.356;-1.748;2023-04-09T08:11:31;29.33;;;19.20;;
69256;SDS011;56376;53.356;-1.748;2023-04-09T08:13:56;28.37;;;19.63;;
69256;SDS011;56376;53.356;-1.748;2023-04-09T08:16:22;25.63;;;17.60;;
69256;SDS011;56376;53.356;-1.748;2023-04-09T08:18:51;27.53;;;18.30;;
69256;SDS011;56376;53.356;-1.748;2023-04-09T08:21:17;26.73;;;18.50;;
69256;SDS011;56376;53.356;-1.748;2023-04-09T08:23:43;25.30;;;18.10;;
69256;SDS011;56376;53.356;-1.748;2023-04-09T08:26:08;29.43;;;19.40;;
69256;SDS011;56376;53.356;-1.748;2023-04-09T08:28:34;28.07;;;20.00;;
69256;SDS011;56376;53.356;-1.748;2023-04-09T08:30:59;28.73;;;19.33;;
69256;SDS011;56376;53.356;-1.748;2023-04-09T08:33:25;28.07;;;17.53;;
69256;SDS011;56376;53.356;-1.748;2023-04-09T08:35:50;26.93;;;18.20;;
69256;SDS011;56376;53.356;-1.748;2023-04-09T08:38:17;29.90;;;20.33;;
69256;SDS011;56376;53.356;-1.748;2023-04-09T08:40:43;25.83;;;16.87;;
69256;SDS011;56376;53.356;-1.748;2023-04-09T08:43:08;25.77;;;17.80;;
69256;SDS011;56376;53.356;-1.748;2023-04-09T08:45:38;28.60;;;17.57;;
69256;SDS011;56376;53.356;-1.748;2023-04-09T08:48:04;26.43;;;18.73;;
69256;SDS011;56376;53.356;-1.748;2023-04-09T08:50:37;25.27;;;18.00;;
69256;SDS011;56376;53.356;-1.748;2023-04-09T08:53:03;27.57;;;18.63;;
69256;SDS011;56376;53.356;-1.748;2023-04-09T08:55:30;27.77;;;19.57;;
69256;SDS011;56376;53.356;-1.748;2023-04-09T08:57:56;28.23;;;18.27;;
69256;SDS011;56376;53.356;-1.748;2023-04-09T09:00:22;24.70;;;17.27;;
69256;SDS011;56376;53.356;-1.748;2023-04-09T09:03:09;27.60;;;17.93;;
69256;SDS011;56376;53.356;-1.748;2023-04-09T09:05:43;27.47;;;19.47;;
69256;SDS011;56376;53.356;-1.748;2023-04-09T09:08:13;26.63;;;17.48;;
69256;SDS011;56376;53.356;-1.748;2023-04-09T09:10:47;26.70;;;17.73;;
69256;SDS011;56376;53.356;-1.748;2023-04-09T09:13:25;26.10;;;17.47;;
69256;SDS011;56376;53.356;-1.748;2023-04-09T09:18:37;26.50;;;17.03;;
69256;SDS011;56376;53.356;-1.748;2023-04-09T09:23:40;28.17;;;18.80;;
69256;SDS011;56376;53.356;-1.748;2023-04-09T09:26:22;28.13;;;18.83;;
69256;SDS011;56376;53.356;-1.748;2023-04-09T09:28:50;26.88;;;18.60;;
69256;SDS011;56376;53.356;-1.748;2023-04-09T09:31:17;28.80;;;19.50;;
69256;SDS011;56376;53.356;-1.748;2023-04-09T09:33:43;31.07;;;20.03;;
69256;SDS011;56376;53.356;-1.748;2023-04-09T09:36:10;31.97;;;19.63;;
69256;SDS011;56376;53.356;-1.748;2023-04-09T09:38:52;33.57;;;21.17;;
69256;SDS011;56376;53.356;-1.748;2023-04-09T09:41:22;27.27;;;18.77;;
69256;SDS011;56376;53.356;-1.748;2023-04-09T09:43:48;29.87;;;20.13;;
69256;SDS011;56376;53.356;-1.748;2023-04-09T09:46:15;31.00;;;20.03;;
69256;SDS011;56376;53.356;-1.748;2023-04-09T09:48:41;25.73;;;17.93;;
69256;SDS011;56376;53.356;-1.748;2023-04-09T09:51:10;26.73;;;18.60;;
69256;SDS011;56376;53.356;-1.748;2023-04-09T09:53:37;31.07;;;20.63;;
69256;SDS011;56376;53.356;-1.748;2023-04-09T09:56:04;30.80;;;20.63;;
69256;SDS011;56376;53.356;-1.748;2023-04-09T09:58:31;32.80;;;22.43;;
69256;SDS011;56376;53.356;-1.748;2023-04-09T10:01:19;32.77;;;20.83;;
69256;SDS011;56376;53.356;-1.748;2023-04-09T10:03:48;28.53;;;19.00;;
69256;SDS011;56376;53.356;-1.748;2023-04-09T10:06:15;26.80;;;17.77;;
69256;SDS011;56376;53.356;-1.748;2023-04-09T10:08:41;27.53;;;17.97;;
69256;SDS011;56376;53.356;-1.748;2023-04-09T10:11:08;27.33;;;18.83;;
69256;SDS011;56376;53.356;-1.748;2023-04-09T10:13:34;25.90;;;17.70;;
69256;SDS011;56376;53.356;-1.748;2023-04-09T10:16:03;24.30;;;17.40;;
69256;SDS011;56376;53.356;-1.748;2023-04-09T10:18:30;23.93;;;17.57;;
69256;SDS011;56376;53.356;-1.748;2023-04-09T10:23:53;28.98;;;18.90;;
69256;SDS011;56376;53.356;-1.748;2023-04-09T10:26:19;26.93;;;19.37;;
69256;SDS011;56376;53.356;-1.748;2023-04-09T10:28:46;27.83;;;18.67;;
69256;SDS011;56376;53.356;-1.748;2023-04-09T10:31:11;25.60;;;17.63;;
69256;SDS011;56376;53.356;-1.748;2023-04-09T10:33:38;24.30;;;17.20;;
69256;SDS011;56376;53.356;-1.748;2023-04-09T10:36:04;24.70;;;17.80;;
69256;SDS011;56376;53.356;-1.748;2023-04-09T10:38:38;28.77;;;19.33;;
69256;SDS011;56376;53.356;-1.748;2023-04-09T10:41:15;22.23;;;16.90;;
69256;SDS011;56376;53.356;-1.748;2023-04-09T10:43:46;24.63;;;17.23;;
69256;SDS011;56376;53.356;-1.748;2023-04-09T10:46:34;29.00;;;21.27;;
69256;SDS011;56376;53.356;-1.748;2023-04-09T10:49:10;25.93;;;19.27;;
69256;SDS011;56376;53.356;-1.748;2023-04-09T10:51:37;26.20;;;18.57;;
69256;SDS011;56376;53.356;-1.748;2023-04-09T10:54:04;26.47;;;18.97;;
69256;SDS011;56376;53.356;-1.748;2023-04-09T10:56:31;24.60;;;17.50;;
69256;SDS011;56376;53.356;-1.748;2023-04-09T10:58:58;24.73;;;18.30;;
69256;SDS011;56376;53.356;-1.748;2023-04-09T11:01:23;29.63;;;19.57;;
69256;SDS011;56376;53.356;-1.748;2023-04-09T11:04:15;24.90;;;18.53;;
69256;SDS011;56376;53.356;-1.748;2023-04-09T11:06:40;26.23;;;18.73;;
69256;SDS011;56376;53.356;-1.748;2023-04-09T11:09:09;23.70;;;16.95;;
69256;SDS011;56376;53.356;-1.748;2023-04-09T11:11:35;25.20;;;17.63;;
69256;SDS011;56376;53.356;-1.748;2023-04-09T11:14:00;24.15;;;18.10;;
69256;SDS011;56376;53.356;-1.748;2023-04-09T11:16:29;24.43;;;17.57;;
69256;SDS011;56376;53.356;-1.748;2023-04-09T11:18:55;21.47;;;15.33;;
69256;SDS011;56376;53.356;-1.748;2023-04-09T11:21:21;20.33;;;14.73;;
69256;SDS011;56376;53.356;-1.748;2023-04-09T11:23:51;21.13;;;15.27;;
69256;SDS011;56376;53.356;-1.748;2023-04-09T11:26:22;20.58;;;15.40;;
69256;SDS011;56376;53.356;-1.748;2023-04-09T11:28:48;21.83;;;15.57;;
69256;SDS011;56376;53.356;-1.748;2023-04-09T11:31:14;22.13;;;15.93;;
69256;SDS011;56376;53.356;-1.748;2023-04-09T11:33:40;20.02;;;16.23;;
69256;SDS011;56376;53.356;-1.748;2023-04-09T11:36:09;18.60;;;13.88;;
69256;SDS011;56376;53.356;-1.748;2023-04-09T11:38:35;16.48;;;13.48;;
69256;SDS011;56376;53.356;-1.748;2023-04-09T11:41:01;18.85;;;14.80;;
69256;SDS011;56376;53.356;-1.748;2023-04-09T11:43:27;19.00;;;13.75;;
69256;SDS011;56376;53.356;-1.748;2023-04-09T11:45:52;18.67;;;13.30;;
69256;SDS011;56376;53.356;-1.748;2023-04-09T11:48:18;16.75;;;12.93;;
69256;SDS011;56376;53.356;-1.748;2023-04-09T11:50:45;20.05;;;15.68;;
69256;SDS011;56376;53.356;-1.748;2023-04-09T11:53:18;19.65;;;15.75;;
69256;SDS011;56376;53.356;-1.748;2023-04-09T11:55:45;18.90;;;15.02;;
69256;SDS011;56376;53.356;-1.748;2023-04-09T11:58:15;17.15;;;13.23;;
69256;SDS011;56376;53.356;-1.748;2023-04-09T12:00:41;14.95;;;12.30;;
69256;SDS011;56376;53.356;-1.748;2023-04-09T12:03:08;16.85;;;13.48;;
69256;SDS011;56376;53.356;-1.748;2023-04-09T12:05:34;18.77;;;14.20;;
69256;SDS011;56376;53.356;-1.748;2023-04-09T12:08:00;14.00;;;11.63;;
69256;SDS011;56376;53.356;-1.748;2023-04-09T12:10:32;15.68;;;13.27;;
69256;SDS011;56376;53.356;-1.748;2023-04-09T12:13:03;17.45;;;13.70;;
69256;SDS011;56376;53.356;-1.748;2023-04-09T12:15:40;14.88;;;12.27;;
69256;SDS011;56376;53.356;-1.748;2023-04-09T12:18:08;13.93;;;11.60;;
69256;SDS011;56376;53.356;-1.748;2023-04-09T12:20:35;15.55;;;12.98;;
69256;SDS011;56376;53.356;-1.748;2023-04-09T12:23:03;15.82;;;13.20;;
69256;SDS011;56376;53.356;-1.748;2023-04-09T12:25:31;15.82;;;12.55;;
69256;SDS011;56376;53.356;-1.748;2023-04-09T12:27:59;19.38;;;14.68;;
69256;SDS011;56376;53.356;-1.748;2023-04-09T12:30:24;17.95;;;15.60;;
69256;SDS011;56376;53.356;-1.748;2023-04-09T12:32:51;15.73;;;12.80;;
69256;SDS011;56376;53.356;-1.748;2023-04-09T12:35:17;16.50;;;13.45;;
69256;SDS011;56376;53.356;-1.748;2023-04-09T12:37:43;15.10;;;12.10;;
69256;SDS011;56376;53.356;-1.748;2023-04-09T12:40:09;13.50;;;11.43;;
69256;SDS011;56376;53.356;-1.748;2023-04-09T12:42:36;14.73;;;12.30;;
69256;SDS011;56376;53.356;-1.748;2023-04-09T12:45:02;13.65;;;11.75;;
69256;SDS011;56376;53.356;-1.748;2023-04-09T12:47:27;16.40;;;13.80;;
69256;SDS011;56376;53.356;-1.748;2023-04-09T12:49:53;13.45;;;11.25;;
69256;SDS011;56376;53.356;-1.748;2023-04-09T12:52:18;14.07;;;11.63;;
69256;SDS011;56376;53.356;-1.748;2023-04-09T12:54:44;13.20;;;11.80;;
69256;SDS011;56376;53.356;-1.748;2023-04-09T12:57:09;14.07;;;11.85;;
69256;SDS011;56376;53.356;-1.748;2023-04-09T12:59:35;12.90;;;10.75;;
69256;SDS011;56376;53.356;-1.748;2023-04-09T13:02:00;12.05;;;10.57;;
69256;SDS011;56376;53.356;-1.748;2023-04-09T13:04:26;15.70;;;13.43;;
69256;SDS011;56376;53.356;-1.748;2023-04-09T13:06:51;13.30;;;11.50;;
69256;SDS011;56376;53.356;-1.748;2023-04-09T13:09:17;12.90;;;10.43;;
69256;SDS011;56376;53.356;-1.748;2023-04-09T13:11:42;15.75;;;13.65;;
69256;SDS011;56376;53.356;-1.748;2023-04-09T13:14:07;13.57;;;12.18;;
69256;SDS011;56376;53.356;-1.748;2023-04-09T13:16:37;12.73;;;11.43;;
69256;SDS011;56376;53.356;-1.748;2023-04-09T13:19:06;12.88;;;11.38;;
69256;SDS011;56376;53.356;-1.748;2023-04-09T13:21:33;12.65;;;10.80;;
69256;SDS011;56376;53.356;-1.748;2023-04-09T13:23:58;15.05;;;12.90;;
69256;SDS011;56376;53.356;-1.748;2023-04-09T13:26:24;14.32;;;12.48;;
69256;SDS011;56376;53.356;-1.748;2023-04-09T13:28:49;12.80;;;11.38;;
69256;SDS011;56376;53.356;-1.748;2023-04-09T13:31:16;13.00;;;11.65;;
69256;SDS011;56376;53.356;-1.748;2023-04-09T13:33:42;12.02;;;10.65;;
69256;SDS011;56376;53.356;-1.748;2023-04-09T13:36:07;13.20;;;10.68;;
69256;SDS011;56376;53.356;-1.748;2023-04-09T13:38:32;13.15;;;11.85;;
69256;SDS011;56376;53.356;-1.748;2023-04-09T13:40:58;11.82;;;10.63;;
69256;SDS011;56376;53.356;-1.748;2023-04-09T13:43:24;11.43;;;10.27;;
69256;SDS011;56376;53.356;-1.748;2023-04-09T13:45:52;14.63;;;12.85;;
69256;SDS011;56376;53.356;-1.748;2023-04-09T13:48:18;11.98;;;10.10;;
69256;SDS011;56376;53.356;-1.748;2023-04-09T13:50:45;12.00;;;9.90;;
69256;SDS011;56376;53.356;-1.748;2023-04-09T13:53:10;13.82;;;11.50;;
69256;SDS011;56376;53.356;-1.748;2023-04-09T13:55:35;12.02;;;10.45;;
69256;SDS011;56376;53.356;-1.748;2023-04-09T13:58:01;10.52;;;9.05;;
69256;SDS011;56376;53.356;-1.748;2023-04-09T14:00:26;11.45;;;9.95;;
69256;SDS011;56376;53.356;-1.748;2023-04-09T14:02:52;10.82;;;9.68;;
69256;SDS011;56376;53.356;-1.748;2023-04-09T14:05:17;13.95;;;11.35;;
69256;SDS011;56376;53.356;-1.748;2023-04-09T14:07:42;13.20;;;10.95;;
69256;SDS011;56376;53.356;-1.748;2023-04-09T14:10:08;10.90;;;9.27;;
69256;SDS011;56376;53.356;-1.748;2023-04-09T14:12:34;13.18;;;11.30;;
69256;SDS011;56376;53.356;-1.748;2023-04-09T14:14:59;13.10;;;11.43;;
69256;SDS011;56376;53.356;-1.748;2023-04-09T14:17:25;11.77;;;10.13;;
69256;SDS011;56376;53.356;-1.748;2023-04-09T14:19:50;15.10;;;10.65;;
69256;SDS011;56376;53.356;-1.748;2023-04-09T14:22:15;11.73;;;9.90;;
69256;SDS011;56376;53.356;-1.748;2023-04-09T14:24:41;16.60;;;12.95;;
69256;SDS011;56376;53.356;-1.748;2023-04-09T14:27:06;14.10;;;10.20;;
69256;SDS011;56376;53.356;-1.748;2023-04-09T14:29:32;15.32;;;12.70;;
69256;SDS011;56376;53.356;-1.748;2023-04-09T14:31:58;14.38;;;11.52;;
69256;SDS011;56376;53.356;-1.748;2023-04-09T14:34:24;12.43;;;9.70;;
69256;SDS011;56376;53.356;-1.748;2023-04-09T14:36:50;15.10;;;12.30;;
69256;SDS011;56376;53.356;-1.748;2023-04-09T14:39:15;12.85;;;10.95;;
69256;SDS011;56376;53.356;-1.748;2023-04-09T14:41:41;12.57;;;10.25;;